Time;durP1;ratioP1;P1;durP2;ratioP2;P2;SDS_P1;SDS_P2;PMS_P1;PMS_P2;Temp;Humidity;BMP_temperature;BMP_pressure;BME280_temperature;BME280_humidity;BME280_pressure;Samples;Min_cycle;Max_cycle;Signal;HPM_P1;HPM_P2
2022/11/09 00:02:45;;;;;;;3.00;1.80;;;;;;;15.67;89.24;99246.38;12202853;19;20003;-85
2022/11/09 00:06:54;;;;;;;3.03;2.00;;;;;;;15.70;90.34;99246.66;12230212;19;20009;-86
2022/11/09 00:11:10;;;;;;;3.45;1.75;;;;;;;15.73;90.43;99256.34;12208514;19;20033;-85
2022/11/09 00:15:13;;;;;;;4.90;2.00;;;;;;;15.73;91.26;99267.44;12250682;19;20014;-84
2022/11/09 00:19:19;;;;;;;3.83;1.77;;;;;;;15.72;92.50;99285.25;12274351;19;20038;-84
2022/11/09 00:23:21;;;;;;;3.88;2.10;;;;;;;15.65;94.22;99290.31;12211265;19;20072;-85
2022/11/09 00:27:23;;;;;;;5.72;2.13;;;;;;;15.55;95.65;99312.63;12225162;19;20015;-85
2022/11/09 00:31:25;;;;;;;6.45;2.70;;;;;;;15.47;96.88;99325.22;12219958;19;20111;-86
2022/11/09 00:35:26;;;;;;;5.05;2.45;;;;;;;15.26;100.00;99347.63;12194510;19;20617;-86
2022/11/09 00:39:29;;;;;;;9.20;3.05;;;;;;;15.00;100.00;99379.50;12222989;19;20078;-85
2022/11/09 00:43:32;;;;;;;10.75;4.38;;;;;;;14.77;100.00;99373.56;12222069;19;20125;-86
2022/11/09 00:47:34;;;;;;;9.55;4.32;;;;;;;14.58;100.00;99367.88;12201173;19;20015;-85
2022/11/09 00:51:36;;;;;;;10.50;4.68;;;;;;;14.41;100.00;99328.56;12218465;19;20500;-86
2022/11/09 00:55:38;;;;;;;11.43;5.05;;;;;;;14.28;100.00;99315.38;12211645;19;20026;-85
2022/11/09 00:59:39;;;;;;;9.25;5.10;;;;;;;14.17;100.00;99286.88;12217987;19;20006;-85
2022/11/09 01:03:43;;;;;;;12.00;5.40;;;;;;;14.12;100.00;99275.81;12217211;19;20003;-85
2022/11/09 01:07:45;;;;;;;10.40;5.38;;;;;;;14.09;100.00;99279.16;12195226;19;20034;-85
2022/11/09 01:11:46;;;;;;;9.93;5.65;;;;;;;14.02;100.00;99303.59;12215726;19;20464;-86
2022/11/09 01:15:51;;;;;;;10.43;5.68;;;;;;;13.95;100.00;99330.75;12208454;19;20006;-85
2022/11/09 01:19:52;;;;;;;9.48;5.30;;;;;;;13.92;100.00;99329.41;12192006;19;20047;-85
2022/11/09 01:23:57;;;;;;;8.45;4.03;;;;;;;13.94;100.00;99310.53;12213401;19;20031;-84
2022/11/09 01:28:01;;;;;;;8.30;4.30;;;;;;;13.90;100.00;99315.00;12212578;19;20019;-84
2022/11/09 01:32:03;;;;;;;5.63;3.47;;;;;;;13.90;100.00;99331.63;12186955;19;20093;-84
2022/11/09 01:36:08;;;;;;;10.93;3.60;;;;;;;13.90;100.00;99329.69;12209221;19;20086;-84
2022/11/09 01:40:11;;;;;;;7.30;4.00;;;;;;;13.93;100.00;99336.59;12213808;19;20475;-85
2022/11/09 01:44:17;;;;;;;5.85;3.60;;;;;;;13.92;100.00;99343.25;12189539;19;20002;-85
2022/11/09 01:48:31;;;;;;;8.40;4.00;;;;;;;13.93;100.00;99358.75;12213883;19;20010;-85
2022/11/09 01:52:36;;;;;;;7.43;3.88;;;;;;;13.95;100.00;99351.00;12211512;19;20025;-85
2022/11/09 01:56:44;;;;;;;8.77;3.50;;;;;;;13.99;100.00;99340.16;12189419;19;20622;-85
2022/11/09 02:00:49;;;;;;;6.85;3.10;;;;;;;13.99;100.00;99337.41;12207605;19;20034;-84
2022/11/09 02:05:04;;;;;;;4.97;3.22;;;;;;;14.03;100.00;99332.94;12185520;19;20018;-86
2022/11/09 02:09:24;;;;;;;4.55;2.40;;;;;;;14.02;100.00;99340.44;12212104;19;20823;-85
2022/11/09 02:13:28;;;;;;;2.85;2.00;;;;;;;13.98;100.00;99330.19;12212939;19;20090;-85
2022/11/09 02:17:30;;;;;;;3.97;2.08;;;;;;;13.95;100.00;99327.97;12198707;19;20021;-84
2022/11/09 02:21:33;;;;;;;5.93;2.50;;;;;;;13.95;100.00;99331.59;12205976;19;20075;-84
2022/11/09 02:25:34;;;;;;;5.18;2.20;;;;;;;13.96;100.00;99324.94;12213327;19;20014;-84
2022/11/09 02:29:40;;;;;;;2.90;2.13;;;;;;;13.96;100.00;99319.41;12192220;19;20007;-84
2022/11/09 02:33:59;;;;;;;4.63;2.60;;;;;;;13.94;100.00;99316.09;12209980;19;20141;-85
2022/11/09 02:38:00;;;;;;;4.97;2.30;;;;;;;13.94;100.00;99293.91;12185859;19;20000;-85
2022/11/09 02:42:08;;;;;;;4.47;2.13;;;;;;;13.91;100.00;99273.16;12210254;19;20007;-85
2022/11/09 02:46:22;;;;;;;3.72;2.00;;;;;;;13.91;100.00;99277.88;12211861;19;20030;-86
2022/11/09 02:50:25;;;;;;;3.83;2.05;;;;;;;13.89;100.00;99269.00;12188147;19;20022;-85
2022/11/09 02:54:26;;;;;;;3.65;1.90;;;;;;;13.90;100.00;99263.19;12209770;19;20083;-85
2022/11/09 02:58:28;;;;;;;2.40;1.70;;;;;;;13.90;100.00;99287.31;12209783;19;20028;-84
2022/11/09 03:02:30;;;;;;;2.55;1.42;;;;;;;13.89;100.00;99272.63;12183051;19;20449;-84
2022/11/09 03:06:35;;;;;;;5.07;1.70;;;;;;;13.89;100.00;99260.69;12207923;19;20167;-85
2022/11/09 03:10:43;;;;;;;2.85;1.60;;;;;;;13.90;100.00;99254.06;12188186;19;20010;-84
2022/11/09 03:14:45;;;;;;;3.17;1.52;;;;;;;13.87;100.00;99243.56;12212152;19;20007;-84
2022/11/09 03:18:47;;;;;;;3.77;1.80;;;;;;;13.84;100.00;99233.06;12229238;19;20011;-83
2022/11/09 03:22:49;;;;;;;3.00;1.70;;;;;;;13.81;100.00;99211.47;12240209;19;20002;-82
2022/11/09 03:26:51;;;;;;;2.20;1.25;;;;;;;13.81;100.00;99200.41;12262839;19;20017;-82
2022/11/09 03:30:53;;;;;;;2.65;1.45;;;;;;;13.79;100.00;99191.53;12216361;19;20027;-85
2022/11/09 03:34:55;;;;;;;2.20;1.00;;;;;;;13.78;100.00;99195.44;12184294;19;20014;-84
2022/11/09 03:38:57;;;;;;;4.38;1.00;;;;;;;13.74;100.00;99227.56;12203652;19;20130;-85
2022/11/09 03:43:02;;;;;;;1.42;1.10;;;;;;;13.72;100.00;99243.66;12202879;19;20003;-84
2022/11/09 03:47:05;;;;;;;1.55;1.10;;;;;;;13.69;100.00;99261.66;12188803;19;20019;-84
2022/11/09 03:51:06;;;;;;;1.80;0.95;;;;;;;13.68;100.00;99271.91;12210751;19;20027;-83
2022/11/09 03:55:08;;;;;;;3.88;1.40;;;;;;;13.64;100.00;99281.88;12212429;19;20030;-84
2022/11/09 03:59:10;;;;;;;3.03;1.88;;;;;;;13.68;100.00;99288.50;12201708;19;20360;-84
2022/11/09 04:03:11;;;;;;;2.45;1.63;;;;;;;13.73;100.00;99293.19;12218788;19;20056;-84
2022/11/09 04:07:13;;;;;;;4.10;1.95;;;;;;;13.76;100.00;99300.09;12223834;19;20025;-83
2022/11/09 04:11:15;;;;;;;2.67;1.70;;;;;;;13.78;100.00;99300.66;12198583;19;20030;-84
2022/11/09 04:15:17;;;;;;;4.05;1.90;;;;;;;13.83;100.00;99303.38;12218819;19;20014;-84
2022/11/09 04:19:19;;;;;;;5.00;2.15;;;;;;;13.83;100.00;99300.63;12219532;19;20011;-84
2022/11/09 04:23:20;;;;;;;3.63;1.55;;;;;;;13.83;100.00;99303.38;12196708;19;20006;-84
2022/11/09 04:27:22;;;;;;;3.55;1.90;;;;;;;13.83;100.00;99308.94;12240310;19;20026;-84
2022/11/09 04:31:24;;;;;;;3.33;1.80;;;;;;;13.82;100.00;99308.09;12218478;19;20018;-83
2022/11/09 04:35:30;;;;;;;3.35;1.77;;;;;;;13.82;100.00;99321.13;12198349;19;20010;-84
2022/11/09 04:39:32;;;;;;;3.95;2.20;;;;;;;13.80;100.00;99309.50;12214361;19;20007;-84
2022/11/09 04:43:34;;;;;;;6.03;2.30;;;;;;;13.76;100.00;99308.41;12219544;19;20011;-84
2022/11/09 04:47:35;;;;;;;4.07;2.35;;;;;;;13.71;100.00;99311.19;12197422;19;20018;-83
2022/11/09 04:51:37;;;;;;;6.35;2.40;;;;;;;13.73;100.00;99314.50;12217355;19;20115;-83
2022/11/09 04:55:39;;;;;;;5.63;2.70;;;;;;;13.73;100.00;99309.81;12221784;19;20027;-84
2022/11/09 04:59:40;;;;;;;4.63;2.43;;;;;;;13.72;100.00;99319.22;12197581;19;20099;-84
2022/11/09 05:03:42;;;;;;;5.93;2.83;;;;;;;13.72;100.00;99323.94;12218578;19;20511;-84
2022/11/09 05:07:44;;;;;;;6.90;2.58;;;;;;;13.74;100.00;99321.69;12195030;19;20030;-83
2022/11/09 05:11:45;;;;;;;3.78;2.58;;;;;;;13.73;100.00;99308.97;12215859;19;20085;-83
2022/11/09 05:15:47;;;;;;;5.68;2.50;;;;;;;13.70;100.00;99309.53;12221935;19;20042;-83
2022/11/09 05:19:49;;;;;;;5.47;2.50;;;;;;;13.70;100.00;99306.78;12247210;19;20003;-82
2022/11/09 05:23:59;;;;;;;4.32;2.40;;;;;;;13.68;100.00;99309.81;12235460;19;20007;-83
2022/11/09 05:28:01;;;;;;;5.45;3.13;;;;;;;13.68;100.00;99295.97;12216029;19;20112;-84
2022/11/09 05:32:03;;;;;;;5.97;3.50;;;;;;;13.67;100.00;99295.16;12194285;19;20393;-83
2022/11/09 05:36:05;;;;;;;7.68;3.38;;;;;;;13.65;100.00;99302.94;12199311;19;20070;-81
2022/11/09 05:40:08;;;;;;;7.63;3.03;;;;;;;13.66;100.00;99292.69;12219608;19;20141;-82
2022/11/09 05:44:09;;;;;;;;;;;;;;;13.64;100.00;99298.47;12199132;19;20472;-82
2022/11/09 05:48:14;;;;;;;10.32;4.55;;;;;;;13.62;100.00;99295.19;12223385;19;20325;-82
2022/11/09 05:52:15;;;;;;;9.23;5.40;;;;;;;13.57;100.00;99292.44;12220617;19;20002;-81
2022/11/09 05:56:17;;;;;;;9.82;5.60;;;;;;;13.58;100.00;99285.78;12196223;19;20070;-83
2022/11/09 06:00:19;;;;;;;8.52;5.63;;;;;;;13.57;100.00;99275.81;12217189;19;20475;-82
2022/11/09 06:04:22;;;;;;;9.50;4.90;;;;;;;13.59;100.00;99279.16;12218731;19;20034;-82
2022/11/09 06:08:24;;;;;;;8.32;4.80;;;;;;;13.63;100.00;99285.75;12199197;19;20014;-82
2022/11/09 06:12:26;;;;;;;10.05;5.18;;;;;;;13.67;100.00;99286.00;12219102;19;20011;-83
2022/11/09 06:16:29;;;;;;;;;;;;;;;13.67;100.00;99292.38;12221912;19;20003;-83
2022/11/09 06:20:32;;;;;;;10.50;4.83;;;;;;;13.74;100.00;99294.00;12194954;19;19922;-83
2022/11/09 06:24:33;;;;;;;7.83;4.87;;;;;;;13.77;100.00;99310.06;12219676;19;20275;-83
2022/11/09 06:28:37;;;;;;;6.78;5.18;;;;;;;13.77;100.00;99305.38;12221524;19;20003;-84
2022/11/09 06:32:39;;;;;;;9.25;5.18;;;;;;;13.74;100.00;99310.63;12191644;19;20014;-84
2022/11/09 06:36:41;;;;;;;8.05;4.68;;;;;;;13.76;100.00;99313.94;12213781;19;20059;-84
2022/11/09 06:40:43;;;;;;;7.07;4.80;;;;;;;13.76;100.00;99313.94;12200275;19;20015;-84
2022/11/09 06:44:45;;;;;;;9.60;4.57;;;;;;;13.75;100.00;99318.66;12213324;19;20034;-84
2022/11/09 06:48:47;;;;;;;7.32;3.42;;;;;;;13.74;100.00;99310.63;12218550;19;20011;-84
2022/11/09 06:53:00;;;;;;;4.88;2.85;;;;;;;13.73;100.00;99318.09;12235623;19;20042;-83
2022/11/09 06:57:02;;;;;;;9.82;3.83;;;;;;;13.73;100.00;99295.97;12230928;19;20011;-83
2022/11/09 07:01:12;;;;;;;6.97;3.42;;;;;;;13.76;100.00;99300.09;12219230;19;20014;-83
2022/11/09 07:05:13;;;;;;;5.60;2.83;;;;;;;13.77;100.00;99301.75;12197590;19;20010;-83
2022/11/09 07:09:15;;;;;;;4.15;2.20;;;;;;;13.75;100.00;99293.75;12218507;19;20003;-83
2022/11/09 07:13:17;;;;;;;3.70;2.13;;;;;;;13.76;100.00;99303.69;12214471;19;20026;-83
2022/11/09 07:17:19;;;;;;;4.03;2.25;;;;;;;13.78;100.00;99312.56;12191866;19;20015;-83
2022/11/09 07:21:21;;;;;;;5.35;2.08;;;;;;;13.83;100.00;99318.09;12213207;19;20003;-83
2022/11/09 07:25:24;;;;;;;3.97;1.77;;;;;;;13.83;100.00;99320.00;12215634;19;20007;-82
2022/11/09 07:29:26;;;;;;;3.33;1.60;;;;;;;13.86;100.00;99319.44;12200491;19;20476;-82
2022/11/09 07:33:29;;;;;;;4.78;1.85;;;;;;;13.89;100.00;99341.03;12226777;19;20027;-83
2022/11/09 07:37:31;;;;;;;2.15;1.55;;;;;;;13.91;100.00;99333.28;12226445;19;20011;-84
2022/11/09 07:41:33;;;;;;;2.73;1.43;;;;;;;13.94;100.00;99349.31;12198410;19;20400;-83
2022/11/09 07:45:36;;;;;;;2.38;1.52;;;;;;;13.97;100.00;99362.59;12225381;19;20011;-83
2022/11/09 07:50:03;;;;;;;4.00;1.53;;;;;;;14.03;100.00;99366.19;12226808;19;20443;-82
2022/11/09 07:54:09;;;;;;;1.95;1.23;;;;;;;14.10;100.00;99375.84;12225980;19;20038;-84
2022/11/09 07:58:14;;;;;;;1.15;0.88;;;;;;;14.16;100.00;99381.34;12221181;19;20011;-84
2022/11/09 08:02:26;;;;;;;1.42;0.60;;;;;;;14.19;100.00;99389.09;12200020;19;20475;-83
2022/11/09 08:06:32;;;;;;;1.00;0.60;;;;;;;14.20;100.00;99393.56;12224170;19;20070;-84
2022/11/09 08:10:35;;;;;;;1.75;1.00;;;;;;;14.23;100.00;99399.34;12224928;19;20015;-83
2022/11/09 08:14:36;;;;;;;2.17;0.90;;;;;;;14.33;100.00;99412.31;12221501;19;20014;-83
2022/11/09 08:18:38;;;;;;;2.85;1.20;;;;;;;14.37;100.00;99418.97;12222450;19;20363;-83
2022/11/09 08:22:41;;;;;;;1.83;1.02;;;;;;;14.41;100.00;99424.78;12222212;19;20027;-84
2022/11/09 08:26:44;;;;;;;2.88;1.20;;;;;;;14.41;100.00;99425.59;12200155;19;20078;-82
2022/11/09 08:30:54;;;;;;;2.72;1.33;;;;;;;14.41;100.00;99424.78;12221886;19;20011;-83
2022/11/09 08:34:56;;;;;;;4.45;1.77;;;;;;;14.38;100.00;99426.16;12201032;19;20014;-84
2022/11/09 08:38:58;;;;;;;2.95;1.90;;;;;;;14.31;100.00;99437.56;12226067;19;20011;-83
2022/11/09 08:43:03;;;;;;;6.10;1.83;;;;;;;14.28;100.00;99435.38;12216127;19;20003;-83
2022/11/09 08:47:05;;;;;;;5.82;1.88;;;;;;;14.31;100.00;99428.44;12202502;19;21301;-84
2022/11/09 08:51:07;;;;;;;3.15;1.85;;;;;;;14.36;100.00;99439.47;12227094;19;20014;-82
2022/11/09 08:55:10;;;;;;;3.30;1.73;;;;;;;14.46;100.00;99431.13;12221997;19;20021;-83
2022/11/09 08:59:12;;;;;;;3.13;1.70;;;;;;;14.52;100.00;99445.81;12195427;19;20018;-83
2022/11/09 09:03:14;;;;;;;4.43;1.52;;;;;;;14.50;100.00;99440.50;12217666;19;20079;-84
2022/11/09 09:07:15;;;;;;;3.47;1.48;;;;;;;14.53;100.00;99448.28;12223419;19;20016;-83
2022/11/09 09:11:17;;;;;;;3.00;1.20;;;;;;;14.52;100.00;99443.88;12196976;19;20014;-83
2022/11/09 09:15:18;;;;;;;3.03;1.38;;;;;;;14.48;100.00;99444.69;12219231;19;20031;-83
2022/11/09 09:19:21;;;;;;;2.00;1.23;;;;;;;14.44;100.00;99446.38;12220590;19;20010;-82
2022/11/09 09:23:22;;;;;;;2.03;0.87;;;;;;;14.52;100.00;99452.19;12194554;19;20240;-82
2022/11/09 09:27:26;;;;;;;2.03;1.13;;;;;;;14.57;100.00;99452.19;12219165;19;20280;-83
2022/11/09 09:31:27;;;;;;;3.40;1.60;;;;;;;14.64;100.00;99454.63;12224125;19;20046;-82
2022/11/09 09:35:29;;;;;;;8.77;3.00;;;;;;;14.69;100.00;99464.84;12207536;19;20011;-84
2022/11/09 09:39:30;;;;;;;1.92;1.00;;;;;;;14.68;100.00;99466.78;12223102;19;20022;-82
2022/11/09 09:43:45;;;;;;;1.92;1.00;;;;;;;14.68;100.00;99474.28;12222359;19;20021;-82
2022/11/09 09:47:55;;;;;;;3.85;1.13;;;;;;;14.75;100.00;99474.81;12200652;19;20010;-83
2022/11/09 09:52:04;;;;;;;3.03;1.40;;;;;;;14.77;100.00;99486.44;12220350;19;20091;-83
2022/11/09 09:56:15;;;;;;;1.70;1.13;;;;;;;14.76;100.00;99493.13;12199815;19;20023;-82
2022/11/09 10:00:24;;;;;;;2.30;1.23;;;;;;;14.77;100.00;99484.50;12229486;19;20014;-82
2022/11/09 10:04:35;;;;;;;3.42;1.38;;;;;;;14.76;100.00;99491.16;12238354;19;20014;-82
2022/11/09 10:08:44;;;;;;;4.28;1.50;;;;;;;14.80;100.00;99489.47;12199250;19;20007;-82
2022/11/09 10:13:01;;;;;;;4.20;1.40;;;;;;;14.87;100.00;99488.31;12213045;19;20018;-84
2022/11/09 10:17:14;;;;;;;4.57;1.70;;;;;;;14.94;100.00;99484.13;12194628;19;20031;-82
2022/11/09 10:21:24;;;;;;;3.17;1.35;;;;;;;15.17;100.00;99477.06;12214047;19;20014;-82
2022/11/09 10:25:27;;;;;;;3.67;1.30;;;;;;;15.47;100.00;99459.31;12237329;19;20021;-83
2022/11/09 10:29:49;;;;;;;4.45;1.25;;;;;;;15.68;100.00;99454.44;12246747;19;20006;-82
2022/11/09 10:33:57;;;;;;;3.22;1.05;;;;;;;15.83;100.00;99461.81;12227218;19;20029;-83
2022/11/09 10:37:59;;;;;;;3.83;1.17;;;;;;;16.03;100.00;99457.13;12202387;19;20500;-83
2022/11/09 10:42:00;;;;;;;2.00;0.90;;;;;;;16.08;100.00;99448.75;12219602;19;20103;-83
2022/11/09 10:46:20;;;;;;;3.90;1.10;;;;;;;16.04;100.00;99456.84;12242586;19;20022;-82
2022/11/09 10:50:51;;;;;;;3.25;1.10;;;;;;;16.10;100.00;99447.34;12245950;19;20013;-83
2022/11/09 10:55:22;;;;;;;3.15;1.10;;;;;;;16.19;100.00;99444.75;12250066;19;20038;-84
2022/11/09 10:59:52;;;;;;;4.85;1.60;;;;;;;16.25;100.00;99443.56;12203540;19;20421;-83
2022/11/09 11:04:24;;;;;;;2.30;1.27;;;;;;;16.37;100.00;99435.63;12229621;19;20031;-86
2022/11/09 11:08:49;;;;;;;3.40;1.20;;;;;;;16.54;100.00;99448.22;12215990;19;20013;-84
2022/11/09 11:13:09;;;;;;;2.95;1.40;;;;;;;16.69;100.00;99444.41;12237295;19;20017;-83
2022/11/09 11:17:35;;;;;;;1.88;1.05;;;;;;;16.64;100.00;99437.75;12213320;19;20018;-83
2022/11/09 11:22:11;;;;;;;1.58;1.05;;;;;;;16.76;100.00;99442.91;12233615;19;20013;-83
2022/11/09 11:26:36;;;;;;;3.60;1.30;;;;;;;16.95;100.00;99447.66;12213553;19;20035;-83
2022/11/09 11:30:57;;;;;;;4.40;1.40;;;;;;;17.05;100.00;99441.94;12233642;19;20027;-83
2022/11/09 11:35:30;;;;;;;3.25;0.95;;;;;;;17.14;100.00;99434.56;12212969;19;20020;-83
2022/11/09 11:39:53;;;;;;;4.85;1.30;;;;;;;17.15;100.00;99440.94;12231586;19;20543;-83
2022/11/09 11:44:26;;;;;;;4.43;1.38;;;;;;;17.13;100.00;99444.03;12209075;19;20100;-83
2022/11/09 11:48:53;;;;;;;7.80;1.20;;;;;;;17.06;100.00;99438.03;12228739;19;20384;-83
2022/11/09 11:53:31;;;;;;;7.15;1.10;;;;;;;17.04;100.00;99445.84;12205302;19;20416;-82
2022/11/09 11:57:55;;;;;;;2.40;1.27;;;;;;;17.04;100.00;99435.56;12224339;19;20019;-83
2022/11/09 12:02:58;;;;;;;3.22;1.20;;;;;;;17.06;100.00;99427.72;12205974;19;20035;-82
2022/11/09 12:07:42;;;;;;;4.47;1.50;;;;;;;17.05;100.00;99433.59;12228215;19;20018;-83
2022/11/09 12:12:12;;;;;;;3.90;1.50;;;;;;;16.91;100.00;99441.03;12208089;19;20531;-82
2022/11/09 12:16:51;;;;;;;3.08;1.23;;;;;;;16.81;100.00;99433.69;12230635;19;20133;-82
2022/11/09 12:21:26;;;;;;;3.45;1.38;;;;;;;16.68;100.00;99437.16;12201852;19;20013;-81
2022/11/09 12:26:07;;;;;;;4.57;1.70;;;;;;;16.59;100.00;99440.59;12205580;19;20953;-82
2022/11/09 12:30:59;;;;;;;3.60;1.70;;;;;;;16.67;100.00;99436.34;12227746;19;20023;-82
2022/11/09 12:35:28;;;;;;;3.13;1.15;;;;;;;16.74;100.00;99430.38;12206458;19;20083;-82
2022/11/09 12:39:53;;;;;;;5.10;1.70;;;;;;;16.73;100.00;99434.31;12228831;19;20014;-82
2022/11/09 12:44:20;;;;;;;2.20;1.13;;;;;;;16.75;100.00;99432.06;12203229;19;20013;-81
2022/11/09 12:48:40;;;;;;;2.70;1.35;;;;;;;16.80;100.00;99430.03;12221657;19;20478;-81
2022/11/09 12:53:02;;;;;;;5.38;1.33;;;;;;;16.87;100.00;99428.88;12202453;19;20027;-82
2022/11/09 12:57:26;;;;;;;5.63;1.48;;;;;;;16.91;100.00;99429.91;12222881;19;20081;-82
2022/11/09 13:01:55;;;;;;;2.35;1.60;;;;;;;16.92;100.00;99437.94;12198278;19;20024;-81
2022/11/09 13:06:22;;;;;;;2.97;1.23;;;;;;;16.88;100.00;99433.31;12223344;19;20067;-81
2022/11/09 13:10:42;;;;;;;6.22;1.45;;;;;;;16.87;100.00;99438.03;12223458;19;20571;-82
2022/11/09 13:15:21;;;;;;;5.18;1.35;;;;;;;16.93;100.00;99433.22;12224554;19;20420;-82
2022/11/09 13:19:42;;;;;;;4.65;1.63;;;;;;;16.94;100.00;99427.34;12221452;19;20018;-82
2022/11/09 13:24:30;;;;;;;2.47;1.38;;;;;;;16.99;100.00;99437.59;12196346;19;20048;-82
2022/11/09 13:29:17;;;;;;;5.35;1.30;;;;;;;16.92;100.00;99437.13;12194129;19;20042;-82
2022/11/09 13:33:38;;;;;;;4.00;1.90;;;;;;;16.87;100.00;99445.56;12218748;19;20016;-82
2022/11/09 13:37:58;;;;;;;6.63;1.63;;;;;;;16.76;100.00;99440.13;12197328;19;20377;-82
2022/11/09 13:42:27;;;;;;;4.43;1.50;;;;;;;16.68;100.00;99437.97;12217950;19;20043;-81
2022/11/09 13:46:49;;;;;;;2.70;1.42;;;;;;;16.64;100.00;99445.28;12193490;19;20035;-82
2022/11/09 13:51:42;;;;;;;3.72;1.88;;;;;;;16.52;100.00;99439.31;12272945;19;20357;-82
2022/11/09 13:56:21;;;;;;;4.93;1.90;;;;;;;16.35;100.00;99443.41;12255386;19;20028;-83
2022/11/09 14:00:46;;;;;;;7.88;2.28;;;;;;;16.26;100.00;99439.63;12270973;19;20038;-83
2022/11/09 14:05:23;;;;;;;5.78;2.08;;;;;;;16.14;100.00;99436.44;12255341;19;20072;-83
2022/11/09 14:10:02;;;;;;;5.75;1.83;;;;;;;16.07;100.00;99439.59;12275265;19;20530;-83
2022/11/09 14:14:46;;;;;;;6.53;2.30;;;;;;;16.04;100.00;99431.03;12252564;19;20019;-83
2022/11/09 14:19:40;;;;;;;4.55;1.75;;;;;;;16.00;100.00;99439.09;12276055;19;20378;-83
2022/11/09 14:24:02;;;;;;;4.03;2.00;;;;;;;15.94;100.00;99443.91;12247059;19;20017;-83
2022/11/09 14:28:27;;;;;;;4.13;1.73;;;;;;;15.91;100.00;99451.97;12269650;19;20016;-82
2022/11/09 14:32:49;;;;;;;7.10;1.95;;;;;;;15.84;100.00;99457.06;12245185;19;20042;-83
2022/11/09 14:37:12;;;;;;;8.17;2.10;;;;;;;15.71;100.00;99450.25;12271230;19;20037;-82
2022/11/09 14:41:33;;;;;;;5.80;2.60;;;;;;;15.60;100.00;99473.66;12243362;19;20417;-82
2022/11/09 14:46:02;;;;;;;5.97;3.03;;;;;;;15.31;100.00;99477.22;12269905;19;20384;-83
2022/11/09 14:50:29;;;;;;;11.30;3.85;;;;;;;15.08;100.00;99476.00;12242823;19;20634;-82
2022/11/09 14:54:49;;;;;;;5.82;3.47;;;;;;;14.95;100.00;99484.97;12268177;19;20426;-85
2022/11/09 14:59:26;;;;;;;8.98;3.80;;;;;;;14.87;100.00;99488.31;12243908;19;20031;-84
2022/11/09 15:04:07;;;;;;;12.35;4.00;;;;;;;14.69;100.00;99482.31;12222377;19;20084;-85
2022/11/09 15:08:30;;;;;;;8.90;4.70;;;;;;;14.56;100.00;99489.31;12196348;19;20418;-85
2022/11/09 15:12:54;;;;;;;14.98;3.47;;;;;;;14.48;100.00;99498.19;12216623;19;20130;-85
2022/11/09 15:17:27;;;;;;;10.75;3.92;;;;;;;14.35;100.00;99488.53;12197039;19;20031;-85
2022/11/09 15:21:48;;;;;;;9.73;3.80;;;;;;;14.26;100.00;99489.41;12213986;19;20772;-84
2022/11/09 15:26:39;;;;;;;7.53;3.17;;;;;;;14.20;100.00;99494.13;12197199;19;20034;-83
2022/11/09 15:30:59;;;;;;;10.60;3.55;;;;;;;14.14;100.00;99498.03;12235941;19;20025;-86
2022/11/09 15:35:20;;;;;;;7.72;3.30;;;;;;;14.19;100.00;99499.94;12247963;19;20070;-85
2022/11/09 15:39:40;;;;;;;8.07;3.50;;;;;;;14.20;100.00;99499.69;12229506;19;20021;-84
2022/11/09 15:44:00;;;;;;;11.65;4.35;;;;;;;14.20;100.00;99501.63;12203911;19;20021;-84
2022/11/09 15:48:21;;;;;;;11.23;6.03;;;;;;;14.19;100.00;99500.78;12226686;19;20381;-84
2022/11/09 15:52:43;;;;;;;14.07;6.10;;;;;;;14.22;100.00;99503.00;12222765;19;20503;-84
2022/11/09 15:57:05;;;;;;;13.40;6.65;;;;;;;14.18;100.00;99504.66;12204058;19;20027;-83
2022/11/09 16:01:30;;;;;;;16.27;7.65;;;;;;;14.17;100.00;99508.56;12222367;19;20038;-84
2022/11/09 16:05:50;;;;;;;16.73;8.65;;;;;;;14.14;100.00;99509.94;12199369;19;20520;-85
2022/11/09 16:10:15;;;;;;;16.80;7.10;;;;;;;14.11;100.00;99512.44;12222625;19;20017;-83
2022/11/09 16:14:35;;;;;;;13.68;6.20;;;;;;;14.07;100.00;99511.34;12192844;19;20022;-83
2022/11/09 16:18:56;;;;;;;14.88;6.60;;;;;;;14.02;100.00;99519.66;12220305;19;20579;-84
2022/11/09 16:23:17;;;;;;;16.00;6.80;;;;;;;13.97;100.00;99523.25;12190210;19;20078;-84
2022/11/09 16:27:38;;;;;;;13.52;6.85;;;;;;;13.91;100.00;99527.97;12212439;19;20022;-84
2022/11/09 16:32:14;;;;;;;14.88;6.97;;;;;;;13.91;100.00;99525.22;12187824;19;20041;-83
2022/11/09 16:36:36;;;;;;;14.20;6.60;;;;;;;13.88;100.00;99528.53;12213055;19;20021;-84
2022/11/09 16:41:03;;;;;;;11.20;6.63;;;;;;;13.87;100.00;99543.50;12190259;19;20026;-83
2022/11/09 16:45:23;;;;;;;11.27;5.97;;;;;;;13.85;100.00;99551.25;12209745;19;20038;-83
2022/11/09 16:49:51;;;;;;;10.15;5.60;;;;;;;13.82;100.00;99562.06;12191325;19;20031;-84
2022/11/09 16:54:11;;;;;;;11.45;5.38;;;;;;;13.78;100.00;99566.50;12211969;19;20023;-83
2022/11/09 16:58:31;;;;;;;8.10;4.47;;;;;;;13.74;100.00;99582.00;12216353;19;20035;-83
2022/11/09 17:02:52;;;;;;;15.32;7.43;;;;;;;13.70;100.00;99589.19;12188784;19;20029;-83
2022/11/09 17:07:13;;;;;;;6.40;3.50;;;;;;;13.65;100.00;99596.41;12215326;19;20108;-83
2022/11/09 17:11:33;;;;;;;5.13;2.63;;;;;;;13.60;100.00;99601.94;12188678;19;20660;-83
2022/11/09 17:15:53;;;;;;;7.47;3.00;;;;;;;13.56;100.00;99620.19;12212374;19;20016;-83
2022/11/09 17:20:14;;;;;;;10.30;3.20;;;;;;;13.54;100.00;99622.41;12191410;19;20511;-81
2022/11/09 17:24:34;;;;;;;6.82;2.67;;;;;;;13.52;100.00;99627.38;12212125;19;20086;-83
2022/11/09 17:28:55;;;;;;;5.65;2.20;;;;;;;13.50;100.00;99646.19;12189843;19;20027;-82
2022/11/09 17:33:15;;;;;;;4.75;2.50;;;;;;;13.46;100.00;99653.38;12209656;19;20034;-82
2022/11/09 17:37:35;;;;;;;5.93;2.33;;;;;;;13.45;100.00;99657.28;12217341;19;20018;-82
2022/11/09 17:41:55;;;;;;;7.90;2.58;;;;;;;13.42;100.00;99663.34;12192465;19;20009;-82
2022/11/09 17:46:19;;;;;;;3.85;2.30;;;;;;;13.37;100.00;99672.47;12212240;19;20049;-83
2022/11/09 17:50:39;;;;;;;4.05;2.33;;;;;;;13.35;100.00;99662.75;12189189;19;20429;-81
2022/11/09 17:54:59;;;;;;;6.57;2.88;;;;;;;13.31;100.00;99675.47;12207361;19;20031;-82
2022/11/09 17:59:19;;;;;;;6.75;3.20;;;;;;;13.30;100.00;99680.19;12189571;19;20346;-82
2022/11/09 18:03:40;;;;;;;4.47;2.90;;;;;;;13.29;100.00;99669.38;12259701;19;20044;-81
2022/11/09 18:08:00;;;;;;;6.43;3.00;;;;;;;13.30;100.00;99676.59;12242391;19;20029;-81
2022/11/09 18:12:20;;;;;;;5.72;2.95;;;;;;;13.26;100.00;99683.75;12234303;19;20098;-83
2022/11/09 18:16:41;;;;;;;6.57;3.25;;;;;;;13.24;100.00;99684.00;12220420;19;20032;-83
2022/11/09 18:21:08;;;;;;;8.13;3.65;;;;;;;13.23;100.00;99696.16;12192095;19;20053;-82
2022/11/09 18:25:28;;;;;;;5.72;3.83;;;;;;;13.21;100.00;99695.63;12213903;19;20038;-82
2022/11/09 18:29:48;;;;;;;9.65;4.57;;;;;;;13.18;100.00;99698.94;12192109;19;20513;-83
2022/11/09 18:34:09;;;;;;;10.30;4.72;;;;;;;13.14;100.00;99704.16;12211205;19;20360;-82
2022/11/09 18:38:30;;;;;;;10.65;5.35;;;;;;;13.11;100.00;99701.91;12204777;19;20464;-83
2022/11/09 18:42:51;;;;;;;10.77;5.72;;;;;;;13.11;100.00;99712.16;12226718;19;20058;-84
2022/11/09 18:47:12;;;;;;;12.48;5.50;;;;;;;13.10;100.00;99718.81;12202220;19;20021;-84
2022/11/09 18:51:32;;;;;;;9.07;4.88;;;;;;;13.07;100.00;99717.41;12224778;19;20507;-83
2022/11/09 18:56:02;;;;;;;11.52;5.00;;;;;;;13.07;100.00;99735.94;12202223;19;20024;-83
2022/11/09 19:00:26;;;;;;;;;;;;;;;13.02;100.00;99739.50;12224360;19;20046;-84
2022/11/09 19:04:46;;;;;;;8.07;4.60;;;;;;;13.00;100.00;99747.25;12216110;19;19938;-84
2022/11/09 19:09:34;;;;;;;10.73;4.68;;;;;;;12.96;100.00;99744.16;12236474;19;20034;-84
2022/11/09 19:13:55;;;;;;;9.70;5.15;;;;;;;12.93;100.00;99746.63;12228224;19;20022;-83
2022/11/09 19:18:15;;;;;;;8.48;3.63;;;;;;;12.91;100.00;99752.44;12227930;19;20024;-83
2022/11/09 19:22:35;;;;;;;6.78;3.40;;;;;;;12.89;100.00;99757.41;12224737;19;20031;-83
2022/11/09 19:26:56;;;;;;;6.72;3.47;;;;;;;12.88;100.00;99757.66;12203418;19;20020;-83